sensor_id;sensor_type;location;lat;lon;timestamp;P1;durP1;ratioP1;P2;durP2;ratioP2
79243;SDS011;68672;42.676;23.356;2023-07-28T00:02:24;4.53;;;3.75;;
79243;SDS011;68672;42.676;23.356;2023-07-28T00:04:49;4.57;;;3.67;;
79243;SDS011;68672;42.676;23.356;2023-07-28T00:07:14;6.18;;;3.83;;
79243;SDS011;68672;42.676;23.356;2023-07-28T00:09:40;5.15;;;4.00;;
79243;SDS011;68672;42.676;23.356;2023-07-28T00:12:05;3.88;;;3.42;;
79243;SDS011;68672;42.676;23.356;2023-07-28T00:14:34;4.63;;;4.07;;
79243;SDS011;68672;42.676;23.356;2023-07-28T00:16:59;4.22;;;3.83;;
79243;SDS011;68672;42.676;23.356;2023-07-28T00:19:27;4.38;;;3.97;;
79243;SDS011;68672;42.676;23.356;2023-07-28T00:21:53;5.80;;;3.92;;
79243;SDS011;68672;42.676;23.356;2023-07-28T00:24:18;5.00;;;3.78;;
79243;SDS011;68672;42.676;23.356;2023-07-28T00:26:47;4.45;;;3.95;;
79243;SDS011;68672;42.676;23.356;2023-07-28T00:29:12;5.55;;;4.43;;
79243;SDS011;68672;42.676;23.356;2023-07-28T00:31:37;4.90;;;4.10;;
79243;SDS011;68672;42.676;23.356;2023-07-28T00:34:03;5.05;;;3.83;;
79243;SDS011;68672;42.676;23.356;2023-07-28T00:36:29;5.10;;;4.68;;
79243;SDS011;68672;42.676;23.356;2023-07-28T00:38:55;4.55;;;3.78;;
79243;SDS011;68672;42.676;23.356;2023-07-28T00:41:21;4.90;;;4.22;;
79243;SDS011;68672;42.676;23.356;2023-07-28T00:43:46;4.60;;;4.07;;
79243;SDS011;68672;42.676;23.356;2023-07-28T00:46:14;4.78;;;4.03;;
79243;SDS011;68672;42.676;23.356;2023-07-28T00:48:40;4.90;;;3.88;;
79243;SDS011;68672;42.676;23.356;2023-07-28T00:51:09;5.30;;;4.05;;
79243;SDS011;68672;42.676;23.356;2023-07-28T00:53:38;8.07;;;4.15;;
79243;SDS011;68672;42.676;23.356;2023-07-28T00:56:04;5.18;;;4.38;;
79243;SDS011;68672;42.676;23.356;2023-07-28T00:58:30;5.05;;;4.43;;
79243;SDS011;68672;42.676;23.356;2023-07-28T01:00:56;4.32;;;3.83;;
79243;SDS011;68672;42.676;23.356;2023-07-28T01:03:24;4.40;;;4.00;;
79243;SDS011;68672;42.676;23.356;2023-07-28T01:08:54;4.60;;;3.75;;
79243;SDS011;68672;42.676;23.356;2023-07-28T01:11:22;5.53;;;4.20;;
79243;SDS011;68672;42.676;23.356;2023-07-28T01:13:47;6.82;;;3.78;;
79243;SDS011;68672;42.676;23.356;2023-07-28T01:16:13;4.68;;;4.18;;
79243;SDS011;68672;42.676;23.356;2023-07-28T01:18:39;4.90;;;4.40;;
79243;SDS011;68672;42.676;23.356;2023-07-28T01:21:05;5.00;;;3.83;;
79243;SDS011;68672;42.676;23.356;2023-07-28T01:26:15;6.97;;;4.30;;
79243;SDS011;68672;42.676;23.356;2023-07-28T01:28:41;4.65;;;4.07;;
79243;SDS011;68672;42.676;23.356;2023-07-28T01:31:09;7.13;;;4.13;;
79243;SDS011;68672;42.676;23.356;2023-07-28T01:33:35;4.03;;;3.63;;
79243;SDS011;68672;42.676;23.356;2023-07-28T01:36:06;5.90;;;3.92;;
79243;SDS011;68672;42.676;23.356;2023-07-28T01:38:31;5.22;;;4.57;;
79243;SDS011;68672;42.676;23.356;2023-07-28T01:40:57;5.72;;;3.58;;
79243;SDS011;68672;42.676;23.356;2023-07-28T01:43:25;7.70;;;3.92;;
79243;SDS011;68672;42.676;23.356;2023-07-28T01:45:51;5.03;;;4.53;;
79243;SDS011;68672;42.676;23.356;2023-07-28T01:48:16;5.57;;;4.50;;
79243;SDS011;68672;42.676;23.356;2023-07-28T01:50:41;5.72;;;4.40;;
79243;SDS011;68672;42.676;23.356;2023-07-28T01:53:07;5.25;;;4.07;;
79243;SDS011;68672;42.676;23.356;2023-07-28T01:55:34;4.95;;;3.63;;
79243;SDS011;68672;42.676;23.356;2023-07-28T01:57:59;3.80;;;3.00;;
79243;SDS011;68672;42.676;23.356;2023-07-28T02:00:26;4.75;;;3.55;;
79243;SDS011;68672;42.676;23.356;2023-07-28T02:02:52;4.63;;;3.40;;
79243;SDS011;68672;42.676;23.356;2023-07-28T02:05:19;3.97;;;3.63;;
79243;SDS011;68672;42.676;23.356;2023-07-28T02:07:44;3.75;;;3.10;;
79243;SDS011;68672;42.676;23.356;2023-07-28T02:10:10;3.55;;;3.25;;
79243;SDS011;68672;42.676;23.356;2023-07-28T02:12:38;3.95;;;3.55;;
79243;SDS011;68672;42.676;23.356;2023-07-28T02:15:07;3.65;;;3.35;;
79243;SDS011;68672;42.676;23.356;2023-07-28T02:17:33;5.18;;;4.15;;
79243;SDS011;68672;42.676;23.356;2023-07-28T02:19:59;5.28;;;3.60;;
79243;SDS011;68672;42.676;23.356;2023-07-28T02:22:26;4.25;;;3.58;;
79243;SDS011;68672;42.676;23.356;2023-07-28T02:24:54;5.78;;;3.40;;
79243;SDS011;68672;42.676;23.356;2023-07-28T02:27:20;4.40;;;3.33;;
79243;SDS011;68672;42.676;23.356;2023-07-28T02:29:45;4.25;;;3.25;;
79243;SDS011;68672;42.676;23.356;2023-07-28T02:32:11;4.32;;;3.72;;
79243;SDS011;68672;42.676;23.356;2023-07-28T02:34:36;3.97;;;3.53;;
79243;SDS011;68672;42.676;23.356;2023-07-28T02:37:02;4.57;;;3.65;;
79243;SDS011;68672;42.676;23.356;2023-07-28T02:39:27;3.75;;;3.22;;
79243;SDS011;68672;42.676;23.356;2023-07-28T02:41:53;5.82;;;4.25;;
79243;SDS011;68672;42.676;23.356;2023-07-28T02:44:18;4.07;;;3.47;;
79243;SDS011;68672;42.676;23.356;2023-07-28T02:46:43;5.90;;;3.50;;
79243;SDS011;68672;42.676;23.356;2023-07-28T02:49:09;5.10;;;3.60;;
79243;SDS011;68672;42.676;23.356;2023-07-28T02:51:34;3.97;;;3.40;;
79243;SDS011;68672;42.676;23.356;2023-07-28T02:54:00;5.53;;;3.10;;
79243;SDS011;68672;42.676;23.356;2023-07-28T02:56:26;3.80;;;3.22;;
79243;SDS011;68672;42.676;23.356;2023-07-28T02:58:51;4.70;;;3.13;;
79243;SDS011;68672;42.676;23.356;2023-07-28T03:01:17;3.72;;;2.72;;
79243;SDS011;68672;42.676;23.356;2023-07-28T03:03:42;3.72;;;2.92;;
79243;SDS011;68672;42.676;23.356;2023-07-28T03:06:08;4.18;;;3.45;;
79243;SDS011;68672;42.676;23.356;2023-07-28T03:08:33;4.03;;;3.58;;
79243;SDS011;68672;42.676;23.356;2023-07-28T03:10:59;5.55;;;3.53;;
79243;SDS011;68672;42.676;23.356;2023-07-28T03:13:27;3.30;;;3.00;;
79243;SDS011;68672;42.676;23.356;2023-07-28T03:15:55;3.90;;;3.20;;
79243;SDS011;68672;42.676;23.356;2023-07-28T03:18:21;3.53;;;3.08;;
79243;SDS011;68672;42.676;23.356;2023-07-28T03:20:46;4.03;;;3.10;;
79243;SDS011;68672;42.676;23.356;2023-07-28T03:23:12;4.40;;;3.28;;
79243;SDS011;68672;42.676;23.356;2023-07-28T03:25:41;2.90;;;2.60;;
79243;SDS011;68672;42.676;23.356;2023-07-28T03:28:06;3.53;;;3.13;;
79243;SDS011;68672;42.676;23.356;2023-07-28T03:30:31;3.40;;;2.92;;
79243;SDS011;68672;42.676;23.356;2023-07-28T03:32:57;4.43;;;3.10;;
79243;SDS011;68672;42.676;23.356;2023-07-28T03:35:22;3.55;;;3.10;;
79243;SDS011;68672;42.676;23.356;2023-07-28T03:37:48;3.83;;;2.97;;
79243;SDS011;68672;42.676;23.356;2023-07-28T03:40:13;3.53;;;2.92;;
79243;SDS011;68672;42.676;23.356;2023-07-28T03:42:39;3.38;;;2.75;;
79243;SDS011;68672;42.676;23.356;2023-07-28T03:45:07;3.85;;;2.75;;
79243;SDS011;68672;42.676;23.356;2023-07-28T03:47:36;3.40;;;2.90;;
79243;SDS011;68672;42.676;23.356;2023-07-28T03:50:02;4.10;;;3.38;;
79243;SDS011;68672;42.676;23.356;2023-07-28T03:52:27;4.20;;;2.90;;
79243;SDS011;68672;42.676;23.356;2023-07-28T03:54:53;3.25;;;2.75;;
79243;SDS011;68672;42.676;23.356;2023-07-28T03:57:18;5.25;;;3.20;;
79243;SDS011;68672;42.676;23.356;2023-07-28T03:59:43;3.88;;;3.15;;
79243;SDS011;68672;42.676;23.356;2023-07-28T04:02:12;3.78;;;3.47;;
79243;SDS011;68672;42.676;23.356;2023-07-28T04:04:37;4.55;;;3.60;;
79243;SDS011;68672;42.676;23.356;2023-07-28T04:07:02;3.00;;;2.70;;
79243;SDS011;68672;42.676;23.356;2023-07-28T04:09:28;4.03;;;3.63;;
79243;SDS011;68672;42.676;23.356;2023-07-28T04:11:53;4.00;;;3.58;;
79243;SDS011;68672;42.676;23.356;2023-07-28T04:14:22;4.60;;;3.53;;
79243;SDS011;68672;42.676;23.356;2023-07-28T04:16:47;4.40;;;3.33;;
79243;SDS011;68672;42.676;23.356;2023-07-28T04:19:12;5.13;;;4.28;;
79243;SDS011;68672;42.676;23.356;2023-07-28T04:21:41;4.20;;;3.40;;
79243;SDS011;68672;42.676;23.356;2023-07-28T04:24:15;4.47;;;3.78;;
79243;SDS011;68672;42.676;23.356;2023-07-28T04:26:40;6.18;;;4.68;;
79243;SDS011;68672;42.676;23.356;2023-07-28T04:29:07;5.60;;;3.83;;
79243;SDS011;68672;42.676;23.356;2023-07-28T04:31:36;4.97;;;3.80;;
79243;SDS011;68672;42.676;23.356;2023-07-28T04:34:04;6.38;;;3.95;;
79243;SDS011;68672;42.676;23.356;2023-07-28T04:36:32;6.97;;;3.75;;
79243;SDS011;68672;42.676;23.356;2023-07-28T04:38:57;4.63;;;3.95;;
79243;SDS011;68672;42.676;23.356;2023-07-28T04:41:23;4.13;;;3.72;;
79243;SDS011;68672;42.676;23.356;2023-07-28T04:43:48;4.38;;;3.97;;
79243;SDS011;68672;42.676;23.356;2023-07-28T04:46:14;3.70;;;3.25;;
79243;SDS011;68672;42.676;23.356;2023-07-28T04:48:39;4.40;;;4.00;;
79243;SDS011;68672;42.676;23.356;2023-07-28T04:51:04;5.20;;;4.35;;
79243;SDS011;68672;42.676;23.356;2023-07-28T04:53:30;4.32;;;3.70;;
79243;SDS011;68672;42.676;23.356;2023-07-28T04:55:55;5.68;;;4.40;;
79243;SDS011;68672;42.676;23.356;2023-07-28T04:58:21;4.95;;;4.05;;
79243;SDS011;68672;42.676;23.356;2023-07-28T05:00:46;5.35;;;4.57;;
79243;SDS011;68672;42.676;23.356;2023-07-28T05:03:11;4.78;;;4.25;;
79243;SDS011;68672;42.676;23.356;2023-07-28T05:05:37;5.55;;;4.32;;
79243;SDS011;68672;42.676;23.356;2023-07-28T05:08:02;5.68;;;4.57;;
79243;SDS011;68672;42.676;23.356;2023-07-28T05:10:28;5.30;;;4.75;;
79243;SDS011;68672;42.676;23.356;2023-07-28T05:12:53;4.90;;;3.88;;
79243;SDS011;68672;42.676;23.356;2023-07-28T05:15:19;6.70;;;4.70;;
79243;SDS011;68672;42.676;23.356;2023-07-28T05:17:48;6.15;;;4.50;;
79243;SDS011;68672;42.676;23.356;2023-07-28T05:20:14;5.10;;;4.60;;
79243;SDS011;68672;42.676;23.356;2023-07-28T05:22:41;8.48;;;4.50;;
79243;SDS011;68672;42.676;23.356;2023-07-28T05:25:07;4.70;;;4.22;;
79243;SDS011;68672;42.676;23.356;2023-07-28T05:27:32;4.28;;;3.80;;
79243;SDS011;68672;42.676;23.356;2023-07-28T05:29:58;6.53;;;3.95;;
79243;SDS011;68672;42.676;23.356;2023-07-28T05:32:24;4.10;;;3.70;;
79243;SDS011;68672;42.676;23.356;2023-07-28T05:34:49;6.63;;;3.97;;
79243;SDS011;68672;42.676;23.356;2023-07-28T05:37:15;5.05;;;4.20;;
79243;SDS011;68672;42.676;23.356;2023-07-28T05:39:43;6.13;;;4.10;;
79243;SDS011;68672;42.676;23.356;2023-07-28T05:42:09;5.32;;;4.03;;
79243;SDS011;68672;42.676;23.356;2023-07-28T05:44:34;6.68;;;4.68;;
79243;SDS011;68672;42.676;23.356;2023-07-28T05:47:00;5.38;;;4.22;;
79243;SDS011;68672;42.676;23.356;2023-07-28T05:49:28;4.63;;;4.15;;
79243;SDS011;68672;42.676;23.356;2023-07-28T05:51:57;6.28;;;5.03;;
79243;SDS011;68672;42.676;23.356;2023-07-28T05:54:24;6.70;;;5.63;;
79243;SDS011;68672;42.676;23.356;2023-07-28T05:56:50;9.88;;;6.38;;
79243;SDS011;68672;42.676;23.356;2023-07-28T05:59:15;8.65;;;6.43;;
79243;SDS011;68672;42.676;23.356;2023-07-28T06:01:41;6.50;;;5.30;;
79243;SDS011;68672;42.676;23.356;2023-07-28T06:04:06;5.25;;;4.68;;
79243;SDS011;68672;42.676;23.356;2023-07-28T06:06:32;7.05;;;5.13;;
79243;SDS011;68672;42.676;23.356;2023-07-28T06:09:00;6.15;;;5.10;;
79243;SDS011;68672;42.676;23.356;2023-07-28T06:11:25;6.43;;;5.13;;
79243;SDS011;68672;42.676;23.356;2023-07-28T06:13:51;6.63;;;5.40;;
79243;SDS011;68672;42.676;23.356;2023-07-28T06:16:17;6.28;;;4.75;;
79243;SDS011;68672;42.676;23.356;2023-07-28T06:18:42;5.38;;;4.80;;
79243;SDS011;68672;42.676;23.356;2023-07-28T06:21:07;4.93;;;3.88;;
79243;SDS011;68672;42.676;23.356;2023-07-28T06:23:33;4.82;;;3.92;;
79243;SDS011;68672;42.676;23.356;2023-07-28T06:26:04;6.45;;;4.00;;
79243;SDS011;68672;42.676;23.356;2023-07-28T06:28:29;5.13;;;4.10;;
79243;SDS011;68672;42.676;23.356;2023-07-28T06:30:55;3.85;;;3.45;;
79243;SDS011;68672;42.676;23.356;2023-07-28T06:33:21;6.78;;;4.05;;
79243;SDS011;68672;42.676;23.356;2023-07-28T06:35:46;6.68;;;3.90;;
79243;SDS011;68672;42.676;23.356;2023-07-28T06:38:12;5.18;;;4.20;;
79243;SDS011;68672;42.676;23.356;2023-07-28T06:40:37;12.57;;;5.68;;
79243;SDS011;68672;42.676;23.356;2023-07-28T06:43:03;5.95;;;5.18;;
79243;SDS011;68672;42.676;23.356;2023-07-28T06:45:31;6.50;;;4.25;;
79243;SDS011;68672;42.676;23.356;2023-07-28T06:47:56;6.22;;;4.93;;
79243;SDS011;68672;42.676;23.356;2023-07-28T06:50:22;4.38;;;3.97;;
79243;SDS011;68672;42.676;23.356;2023-07-28T06:52:47;7.97;;;4.25;;
79243;SDS011;68672;42.676;23.356;2023-07-28T06:55:14;6.78;;;4.55;;
79243;SDS011;68672;42.676;23.356;2023-07-28T06:57:40;6.00;;;4.50;;
79243;SDS011;68672;42.676;23.356;2023-07-28T07:00:05;4.40;;;4.00;;
79243;SDS011;68672;42.676;23.356;2023-07-28T07:02:34;4.22;;;3.65;;
79243;SDS011;68672;42.676;23.356;2023-07-28T07:05:00;4.85;;;4.03;;
79243;SDS011;68672;42.676;23.356;2023-07-28T07:07:25;5.55;;;3.90;;
79243;SDS011;68672;42.676;23.356;2023-07-28T07:09:53;5.57;;;3.83;;
79243;SDS011;68672;42.676;23.356;2023-07-28T07:12:18;5.03;;;3.63;;
79243;SDS011;68672;42.676;23.356;2023-07-28T07:14:46;5.50;;;3.75;;
79243;SDS011;68672;42.676;23.356;2023-07-28T07:17:11;4.35;;;3.58;;
79243;SDS011;68672;42.676;23.356;2023-07-28T07:19:37;4.95;;;3.97;;
79243;SDS011;68672;42.676;23.356;2023-07-28T07:22:02;5.78;;;4.00;;
79243;SDS011;68672;42.676;23.356;2023-07-28T07:24:28;4.55;;;3.90;;
79243;SDS011;68672;42.676;23.356;2023-07-28T07:26:53;4.63;;;3.63;;
79243;SDS011;68672;42.676;23.356;2023-07-28T07:29:19;5.95;;;3.47;;
79243;SDS011;68672;42.676;23.356;2023-07-28T07:31:44;4.75;;;3.33;;
79243;SDS011;68672;42.676;23.356;2023-07-28T07:34:10;8.50;;;3.78;;
79243;SDS011;68672;42.676;23.356;2023-07-28T07:36:38;7.43;;;3.58;;
79243;SDS011;68672;42.676;23.356;2023-07-28T07:39:04;4.82;;;4.22;;
79243;SDS011;68672;42.676;23.356;2023-07-28T07:41:51;8.50;;;4.55;;
79243;SDS011;68672;42.676;23.356;2023-07-28T07:44:16;4.38;;;3.58;;
79243;SDS011;68672;42.676;23.356;2023-07-28T07:46:41;5.15;;;3.45;;
79243;SDS011;68672;42.676;23.356;2023-07-28T07:49:06;4.03;;;3.63;;
79243;SDS011;68672;42.676;23.356;2023-07-28T07:51:33;5.20;;;3.70;;
79243;SDS011;68672;42.676;23.356;2023-07-28T07:54:01;5.25;;;3.97;;
79243;SDS011;68672;42.676;23.356;2023-07-28T07:56:27;5.00;;;4.05;;
79243;SDS011;68672;42.676;23.356;2023-07-28T07:58:55;5.47;;;4.47;;
79243;SDS011;68672;42.676;23.356;2023-07-28T08:01:21;4.40;;;3.70;;
79243;SDS011;68672;42.676;23.356;2023-07-28T08:03:47;5.35;;;3.60;;
79243;SDS011;68672;42.676;23.356;2023-07-28T08:06:12;3.83;;;3.40;;
79243;SDS011;68672;42.676;23.356;2023-07-28T08:08:38;4.28;;;3.88;;
79243;SDS011;68672;42.676;23.356;2023-07-28T08:11:04;4.65;;;3.20;;
79243;SDS011;68672;42.676;23.356;2023-07-28T08:13:30;5.30;;;3.28;;
79243;SDS011;68672;42.676;23.356;2023-07-28T08:15:56;4.80;;;3.85;;
79243;SDS011;68672;42.676;23.356;2023-07-28T08:18:21;4.40;;;3.03;;
79243;SDS011;68672;42.676;23.356;2023-07-28T08:20:47;4.15;;;3.20;;
79243;SDS011;68672;42.676;23.356;2023-07-28T08:23:13;4.53;;;3.53;;
79243;SDS011;68672;42.676;23.356;2023-07-28T08:25:38;3.72;;;3.08;;
79243;SDS011;68672;42.676;23.356;2023-07-28T08:28:04;3.80;;;3.42;;
79243;SDS011;68672;42.676;23.356;2023-07-28T08:30:29;7.07;;;3.80;;
79243;SDS011;68672;42.676;23.356;2023-07-28T08:32:56;5.40;;;3.60;;
79243;SDS011;68672;42.676;23.356;2023-07-28T08:35:22;5.47;;;3.17;;
79243;SDS011;68672;42.676;23.356;2023-07-28T08:37:48;3.40;;;3.10;;
79243;SDS011;68672;42.676;23.356;2023-07-28T08:40:13;4.30;;;3.35;;
79243;SDS011;68672;42.676;23.356;2023-07-28T08:42:39;5.20;;;2.75;;
79243;SDS011;68672;42.676;23.356;2023-07-28T08:45:06;4.43;;;3.45;;
79243;SDS011;68672;42.676;23.356;2023-07-28T08:47:33;5.47;;;3.30;;
79243;SDS011;68672;42.676;23.356;2023-07-28T08:49:59;3.35;;;2.88;;
79243;SDS011;68672;42.676;23.356;2023-07-28T08:54:54;5.50;;;3.25;;
79243;SDS011;68672;42.676;23.356;2023-07-28T08:57:19;4.95;;;3.28;;
79243;SDS011;68672;42.676;23.356;2023-07-28T08:59:48;3.53;;;3.05;;
79243;SDS011;68672;42.676;23.356;2023-07-28T09:02:14;4.38;;;3.25;;
79243;SDS011;68672;42.676;23.356;2023-07-28T09:04:41;3.70;;;3.15;;
79243;SDS011;68672;42.676;23.356;2023-07-28T09:07:07;3.55;;;3.22;;
79243;SDS011;68672;42.676;23.356;2023-07-28T09:09:33;4.25;;;3.22;;
79243;SDS011;68672;42.676;23.356;2023-07-28T09:12:00;4.47;;;3.42;;
79243;SDS011;68672;42.676;23.356;2023-07-28T09:14:26;3.85;;;3.00;;
79243;SDS011;68672;42.676;23.356;2023-07-28T09:16:52;3.83;;;3.22;;
79243;SDS011;68672;42.676;23.356;2023-07-28T09:19:19;4.38;;;3.55;;
79243;SDS011;68672;42.676;23.356;2023-07-28T09:21:45;3.55;;;2.95;;
79243;SDS011;68672;42.676;23.356;2023-07-28T09:24:21;4.18;;;3.53;;
79243;SDS011;68672;42.676;23.356;2023-07-28T09:26:55;4.32;;;3.22;;
79243;SDS011;68672;42.676;23.356;2023-07-28T09:29:20;4.07;;;3.20;;
79243;SDS011;68672;42.676;23.356;2023-07-28T09:31:48;3.95;;;3.05;;
79243;SDS011;68672;42.676;23.356;2023-07-28T09:34:24;4.18;;;3.03;;
79243;SDS011;68672;42.676;23.356;2023-07-28T09:36:54;3.72;;;3.25;;
79243;SDS011;68672;42.676;23.356;2023-07-28T09:39:20;3.97;;;3.10;;
79243;SDS011;68672;42.676;23.356;2023-07-28T09:41:46;3.55;;;3.08;;
79243;SDS011;68672;42.676;23.356;2023-07-28T09:44:12;4.55;;;3.28;;
79243;SDS011;68672;42.676;23.356;2023-07-28T09:46:43;3.78;;;3.08;;
79243;SDS011;68672;42.676;23.356;2023-07-28T09:49:15;3.33;;;3.03;;
79243;SDS011;68672;42.676;23.356;2023-07-28T09:51:53;3.90;;;3.45;;
79243;SDS011;68672;42.676;23.356;2023-07-28T09:54:27;4.00;;;3.20;;
79243;SDS011;68672;42.676;23.356;2023-07-28T09:57:00;6.70;;;3.08;;
79243;SDS011;68672;42.676;23.356;2023-07-28T09:59:32;4.07;;;3.13;;
79243;SDS011;68672;42.676;23.356;2023-07-28T10:02:10;4.13;;;3.47;;
79243;SDS011;68672;42.676;23.356;2023-07-28T10:04:35;4.90;;;3.22;;
79243;SDS011;68672;42.676;23.356;2023-07-28T10:07:01;3.72;;;2.80;;
79243;SDS011;68672;42.676;23.356;2023-07-28T10:09:29;3.70;;;3.03;;
79243;SDS011;68672;42.676;23.356;2023-07-28T10:11:56;8.30;;;3.28;;
79243;SDS011;68672;42.676;23.356;2023-07-28T10:15:03;3.55;;;2.92;;
79243;SDS011;68672;42.676;23.356;2023-07-28T10:17:15;3.83;;;2.72;;
79243;SDS011;68672;42.676;23.356;2023-07-28T10:19:42;4.93;;;3.13;;
79243;SDS011;68672;42.676;23.356;2023-07-28T10:22:11;4.50;;;3.30;;
79243;SDS011;68672;42.676;23.356;2023-07-28T10:24:50;4.10;;;3.15;;
79243;SDS011;68672;42.676;23.356;2023-07-28T10:27:30;3.10;;;2.70;;
79243;SDS011;68672;42.676;23.356;2023-07-28T10:30:10;3.33;;;2.92;;
79243;SDS011;68672;42.676;23.356;2023-07-28T10:32:38;3.55;;;2.80;;
79243;SDS011;68672;42.676;23.356;2023-07-28T10:37:36;3.97;;;3.03;;
79243;SDS011;68672;42.676;23.356;2023-07-28T10:42:53;4.60;;;2.92;;
79243;SDS011;68672;42.676;23.356;2023-07-28T10:45:22;3.65;;;3.17;;
79243;SDS011;68672;42.676;23.356;2023-07-28T10:47:52;3.80;;;3.30;;
79243;SDS011;68672;42.676;23.356;2023-07-28T10:50:20;4.50;;;3.30;;
79243;SDS011;68672;42.676;23.356;2023-07-28T10:52:47;3.50;;;2.83;;
79243;SDS011;68672;42.676;23.356;2023-07-28T10:55:13;4.32;;;3.25;;
79243;SDS011;68672;42.676;23.356;2023-07-28T10:57:40;3.13;;;2.83;;
79243;SDS011;68672;42.676;23.356;2023-07-28T11:00:10;3.60;;;3.30;;
79243;SDS011;68672;42.676;23.356;2023-07-28T11:02:43;4.47;;;3.50;;
79243;SDS011;68672;42.676;23.356;2023-07-28T11:05:19;4.18;;;3.30;;
79243;SDS011;68672;42.676;23.356;2023-07-28T11:07:50;3.53;;;2.88;;
79243;SDS011;68672;42.676;23.356;2023-07-28T11:10:17;3.75;;;2.85;;
79243;SDS011;68672;42.676;23.356;2023-07-28T11:12:43;3.75;;;3.08;;
79243;SDS011;68672;42.676;23.356;2023-07-28T11:15:10;4.53;;;3.17;;
79243;SDS011;68672;42.676;23.356;2023-07-28T11:17:46;5.82;;;3.47;;
79243;SDS011;68672;42.676;23.356;2023-07-28T11:20:27;5.13;;;3.20;;
79243;SDS011;68672;42.676;23.356;2023-07-28T11:23:00;4.05;;;2.95;;
79243;SDS011;68672;42.676;23.356;2023-07-28T11:25:29;3.38;;;2.85;;
79243;SDS011;68672;42.676;23.356;2023-07-28T11:27:56;3.35;;;2.92;;
79243;SDS011;68672;42.676;23.356;2023-07-28T11:30:22;3.80;;;2.75;;
79243;SDS011;68672;42.676;23.356;2023-07-28T11:32:49;5.00;;;3.30;;
79243;SDS011;68672;42.676;23.356;2023-07-28T11:35:17;4.07;;;3.08;;
79243;SDS011;68672;42.676;23.356;2023-07-28T11:37:48;3.42;;;2.80;;
79243;SDS011;68672;42.676;23.356;2023-07-28T11:40:16;5.88;;;3.47;;
79243;SDS011;68672;42.676;23.356;2023-07-28T11:42:46;4.82;;;3.83;;
79243;SDS011;68672;42.676;23.356;2023-07-28T11:45:14;3.83;;;2.80;;
79243;SDS011;68672;42.676;23.356;2023-07-28T11:50:39;4.43;;;2.97;;
79243;SDS011;68672;42.676;23.356;2023-07-28T11:53:06;4.15;;;2.88;;
79243;SDS011;68672;42.676;23.356;2023-07-28T11:55:34;3.40;;;2.65;;
79243;SDS011;68672;42.676;23.356;2023-07-28T11:58:01;5.72;;;3.13;;
79243;SDS011;68672;42.676;23.356;2023-07-28T12:00:33;3.30;;;2.42;;
79243;SDS011;68672;42.676;23.356;2023-07-28T12:03:01;4.25;;;2.70;;
79243;SDS011;68672;42.676;23.356;2023-07-28T12:05:31;4.18;;;3.10;;
79243;SDS011;68672;42.676;23.356;2023-07-28T12:07:58;4.53;;;2.80;;
79243;SDS011;68672;42.676;23.356;2023-07-28T12:10:24;2.85;;;2.47;;
79243;SDS011;68672;42.676;23.356;2023-07-28T12:12:49;3.53;;;2.90;;
79243;SDS011;68672;42.676;23.356;2023-07-28T12:15:19;3.85;;;3.20;;
79243;SDS011;68672;42.676;23.356;2023-07-28T12:18:07;3.55;;;2.78;;
79243;SDS011;68672;42.676;23.356;2023-07-28T12:20:47;4.95;;;3.30;;
79243;SDS011;68672;42.676;23.356;2023-07-28T12:23:18;3.72;;;3.33;;
79243;SDS011;68672;42.676;23.356;2023-07-28T12:25:44;5.57;;;2.55;;
79243;SDS011;68672;42.676;23.356;2023-07-28T12:28:10;3.17;;;2.65;;
79243;SDS011;68672;42.676;23.356;2023-07-28T12:30:41;3.17;;;2.40;;
79243;SDS011;68672;42.676;23.356;2023-07-28T12:33:08;6.30;;;2.55;;
79243;SDS011;68672;42.676;23.356;2023-07-28T12:35:33;4.75;;;2.70;;
79243;SDS011;68672;42.676;23.356;2023-07-28T12:38:00;3.05;;;2.50;;
79243;SDS011;68672;42.676;23.356;2023-07-28T12:40:30;4.00;;;2.88;;
79243;SDS011;68672;42.676;23.356;2023-07-28T12:42:56;3.72;;;2.90;;
79243;SDS011;68672;42.676;23.356;2023-07-28T12:45:22;3.97;;;3.15;;
79243;SDS011;68672;42.676;23.356;2023-07-28T12:47:50;3.63;;;2.70;;
79243;SDS011;68672;42.676;23.356;2023-07-28T12:50:16;3.58;;;2.85;;
79243;SDS011;68672;42.676;23.356;2023-07-28T12:52:48;3.65;;;2.80;;
79243;SDS011;68672;42.676;23.356;2023-07-28T12:55:14;3.13;;;2.50;;
79243;SDS011;68672;42.676;23.356;2023-07-28T12:57:41;3.40;;;2.45;;
79243;SDS011;68672;42.676;23.356;2023-07-28T13:00:07;3.85;;;2.65;;
79243;SDS011;68672;42.676;23.356;2023-07-28T13:02:40;3.33;;;2.60;;
79243;SDS011;68672;42.676;23.356;2023-07-28T13:05:09;3.85;;;2.55;;
79243;SDS011;68672;42.676;23.356;2023-07-28T13:07:38;3.30;;;2.67;;
79243;SDS011;68672;42.676;23.356;2023-07-28T13:10:06;3.05;;;2.38;;
79243;SDS011;68672;42.676;23.356;2023-07-28T13:12:34;3.28;;;2.67;;
79243;SDS011;68672;42.676;23.356;2023-07-28T13:15:00;3.50;;;2.60;;
79243;SDS011;68672;42.676;23.356;2023-07-28T13:17:26;3.38;;;2.60;;
79243;SDS011;68672;42.676;23.356;2023-07-28T13:19:51;3.22;;;2.60;;
79243;SDS011;68672;42.676;23.356;2023-07-28T13:22:22;4.03;;;2.60;;
79243;SDS011;68672;42.676;23.356;2023-07-28T13:24:47;3.25;;;2.88;;
79243;SDS011;68672;42.676;23.356;2023-07-28T13:27:16;3.75;;;2.80;;
79243;SDS011;68672;42.676;23.356;2023-07-28T13:29:41;3.17;;;2.50;;
79243;SDS011;68672;42.676;23.356;2023-07-28T13:32:22;3.35;;;2.75;;
79243;SDS011;68672;42.676;23.356;2023-07-28T13:34:51;3.22;;;2.70;;
79243;SDS011;68672;42.676;23.356;2023-07-28T13:37:18;2.70;;;2.40;;
79243;SDS011;68672;42.676;23.356;2023-07-28T13:39:44;3.20;;;2.67;;
79243;SDS011;68672;42.676;23.356;2023-07-28T13:42:10;2.60;;;2.40;;
79243;SDS011;68672;42.676;23.356;2023-07-28T13:44:37;4.35;;;2.95;;
79243;SDS011;68672;42.676;23.356;2023-07-28T13:47:02;3.05;;;2.38;;
79243;SDS011;68672;42.676;23.356;2023-07-28T13:49:29;3.00;;;2.55;;
79243;SDS011;68672;42.676;23.356;2023-07-28T13:51:54;3.00;;;2.55;;
79243;SDS011;68672;42.676;23.356;2023-07-28T13:54:20;3.42;;;2.70;;
79243;SDS011;68672;42.676;23.356;2023-07-28T13:56:45;4.05;;;2.50;;
79243;SDS011;68672;42.676;23.356;2023-07-28T13:59:11;2.83;;;2.38;;
79243;SDS011;68672;42.676;23.356;2023-07-28T14:01:36;3.25;;;2.80;;
79243;SDS011;68672;42.676;23.356;2023-07-28T14:04:01;3.00;;;2.40;;
79243;SDS011;68672;42.676;23.356;2023-07-28T14:06:27;3.13;;;2.50;;
79243;SDS011;68672;42.676;23.356;2023-07-28T14:08:52;3.22;;;2.70;;
79243;SDS011;68672;42.676;23.356;2023-07-28T14:11:18;2.55;;;2.20;;
79243;SDS011;68672;42.676;23.356;2023-07-28T14:13:43;3.40;;;2.92;;
79243;SDS011;68672;42.676;23.356;2023-07-28T14:16:08;3.63;;;2.80;;
79243;SDS011;68672;42.676;23.356;2023-07-28T14:18:37;4.10;;;3.55;;
79243;SDS011;68672;42.676;23.356;2023-07-28T14:21:03;3.65;;;2.83;;
79243;SDS011;68672;42.676;23.356;2023-07-28T14:23:28;3.40;;;2.92;;
79243;SDS011;68672;42.676;23.356;2023-07-28T14:25:54;4.07;;;2.90;;
79243;SDS011;68672;42.676;23.356;2023-07-28T14:28:23;3.15;;;2.55;;
79243;SDS011;68672;42.676;23.356;2023-07-28T14:31:00;3.60;;;2.97;;
79243;SDS011;68672;42.676;23.356;2023-07-28T14:33:26;3.90;;;2.70;;
79243;SDS011;68672;42.676;23.356;2023-07-28T14:35:51;6.13;;;2.70;;
79243;SDS011;68672;42.676;23.356;2023-07-28T14:38:17;2.78;;;2.53;;
79243;SDS011;68672;42.676;23.356;2023-07-28T14:40:43;5.53;;;2.67;;
79243;SDS011;68672;42.676;23.356;2023-07-28T14:43:12;4.20;;;2.33;;
79243;SDS011;68672;42.676;23.356;2023-07-28T14:45:38;3.03;;;2.20;;
79243;SDS011;68672;42.676;23.356;2023-07-28T14:48:03;3.45;;;2.72;;
79243;SDS011;68672;42.676;23.356;2023-07-28T14:50:29;4.07;;;2.70;;